Terminal Aerodrome Forecast
Issued by NWS

Home | Current Version | Previous Version | Text Only | Print | Product List | Glossary On
Versions: 1 2 3 4 5 6 7 8 9 10 11 12 13 14
115
FTUS42 TJSJ 231140 RRA
TAFJBQ
TAF
TJBQ 231140Z 2312/2412 12003KT P6SM SCT035 SCT040
     FM231300 08012KT P6SM FEW025
     FM231630 08015G22KT P6SM VCSH SCT030 SCT050
     FM232300 09010KT P6SM FEW030=

USA.gov is the U.S. government's official web portal to all federal, state and local government web resources and services.